Time;durP1;ratioP1;P1;durP2;ratioP2;P2;SDS_P1;SDS_P2;PMS_P1;PMS_P2;Temp;Humidity;BMP_temperature;BMP_pressure;BME280_temperature;BME280_humidity;BME280_pressure;Samples;Min_cycle;Max_cycle;Signal;HPM_P1;HPM_P2
2021/10/23 00:02:19;;;;;;;6.67;1.77;;;5.40;99.90;;;;;;4985476;28;20212;-76
2021/10/23 00:04:44;;;;;;;5.43;1.93;;;5.40;99.90;;;;;;4986095;28;20673;-76
2021/10/23 00:07:10;;;;;;;7.43;1.90;;;5.40;99.90;;;;;;4985307;28;20277;-76
2021/10/23 00:09:36;;;;;;;7.07;2.70;;;5.30;99.90;;;;;;4988550;28;20646;-76
2021/10/23 00:12:01;;;;;;;9.00;3.37;;;5.30;99.90;;;;;;4988201;28;20188;-76
2021/10/23 00:14:27;;;;;;;7.97;2.37;;;5.30;99.90;;;;;;4987528;28;20181;-77
2021/10/23 00:16:53;;;;;;;5.77;1.90;;;5.30;99.90;;;;;;4988283;28;20209;-76
2021/10/23 00:19:18;;;;;;;5.17;1.87;;;5.20;99.90;;;;;;4988345;28;20184;-76
2021/10/23 00:21:44;;;;;;;7.87;2.10;;;5.20;99.90;;;;;;4987585;28;20263;-75
2021/10/23 00:24:10;;;;;;;4.17;1.47;;;5.30;99.90;;;;;;4987193;28;20208;-76
2021/10/23 00:26:35;;;;;;;6.63;1.53;;;5.30;99.90;;;;;;4986962;28;20215;-76
2021/10/23 00:29:01;;;;;;;6.47;1.13;;;5.30;99.90;;;;;;4988533;28;20553;-77
2021/10/23 00:31:26;;;;;;;5.03;1.17;;;5.20;99.90;;;;;;4988051;28;20184;-76
2021/10/23 00:33:52;;;;;;;6.90;1.30;;;5.10;99.90;;;;;;4987930;28;20267;-76
2021/10/23 00:36:17;;;;;;;4.20;1.07;;;5.10;99.90;;;;;;4987936;28;20208;-76
2021/10/23 00:38:43;;;;;;;6.60;1.33;;;5.20;99.90;;;;;;4988173;28;20270;-76
2021/10/23 00:41:09;;;;;;;4.27;1.30;;;5.10;99.90;;;;;;4986555;28;20212;-77
2021/10/23 00:43:40;;;;;;;5.23;1.07;;;5.20;99.90;;;;;;4988242;28;20204;-76
2021/10/23 00:46:06;;;;;;;4.60;1.20;;;5.20;99.90;;;;;;5002411;28;20212;-76
2021/10/23 00:48:31;;;;;;;7.13;1.27;;;5.20;99.90;;;;;;4986783;28;20683;-76
2021/10/23 00:50:57;;;;;;;3.17;1.13;;;5.20;99.90;;;;;;4987882;28;20259;-77
2021/10/23 00:53:22;;;;;;;4.30;0.80;;;5.30;99.90;;;;;;4987524;28;20256;-76
2021/10/23 00:55:48;;;;;;;7.57;1.47;;;5.30;99.90;;;;;;4987367;28;20290;-76
2021/10/23 00:58:14;;;;;;;7.50;1.27;;;5.50;99.90;;;;;;4988600;28;20195;-76
2021/10/23 01:00:40;;;;;;;3.43;1.10;;;5.60;99.90;;;;;;4987602;28;20251;-76
2021/10/23 01:03:06;;;;;;;6.73;1.20;;;5.60;99.90;;;;;;4987515;28;20286;-76
2021/10/23 01:05:32;;;;;;;7.93;1.83;;;5.70;99.90;;;;;;4987392;28;20234;-76
2021/10/23 01:07:58;;;;;;;4.87;1.20;;;5.70;99.90;;;;;;4987054;28;20208;-76
2021/10/23 01:10:24;;;;;;;3.23;1.13;;;5.80;99.90;;;;;;4987007;28;20184;-76
2021/10/23 01:12:50;;;;;;;5.33;1.10;;;5.90;99.90;;;;;;4987324;28;20708;-76
2021/10/23 01:15:23;;;;;;;3.27;1.40;;;5.90;99.90;;;;;;4987404;28;20184;-76
2021/10/23 01:17:51;;;;;;;2.60;1.03;;;5.90;99.90;;;;;;4987359;28;20250;-76
2021/10/23 01:20:18;;;;;;;4.03;1.13;;;5.80;99.90;;;;;;4986795;28;21131;-76
2021/10/23 01:22:44;;;;;;;9.57;1.20;;;5.70;99.90;;;;;;4986780;28;20227;-76
2021/10/23 01:25:11;;;;;;;3.63;1.40;;;5.60;99.90;;;;;;4986463;28;20646;-76
2021/10/23 01:27:38;;;;;;;3.70;1.77;;;5.50;99.90;;;;;;4985664;28;20208;-77
2021/10/23 01:30:06;;;;;;;3.40;1.00;;;5.50;99.90;;;;;;4987586;28;20181;-77
2021/10/23 01:32:32;;;;;;;6.37;1.13;;;5.40;99.90;;;;;;5001413;28;20188;-77
2021/10/23 01:34:57;;;;;;;3.33;0.93;;;5.40;99.90;;;;;;4987085;28;20188;-77
2021/10/23 01:37:43;;;;;;;5.23;0.90;;;5.30;99.90;;;;;;4985521;28;20262;-74
2021/10/23 01:40:15;;;;;;;4.93;1.07;;;5.30;99.90;;;;;;4987078;28;20177;-76
2021/10/23 01:42:42;;;;;;;8.77;1.50;;;5.20;99.90;;;;;;4986702;28;20291;-76
2021/10/23 01:45:09;;;;;;;3.70;1.20;;;5.20;99.90;;;;;;4987050;28;20263;-77
2021/10/23 01:47:37;;;;;;;9.40;1.10;;;5.20;99.90;;;;;;4985906;28;20200;-77
2021/10/23 01:50:03;;;;;;;5.43;1.57;;;5.20;99.90;;;;;;4987082;28;20179;-77
2021/10/23 01:52:29;;;;;;;3.20;0.90;;;5.10;99.90;;;;;;4986507;28;20188;-77
2021/10/23 01:54:54;;;;;;;3.80;1.63;;;5.10;99.90;;;;;;4987093;28;20189;-77
2021/10/23 01:57:20;;;;;;;8.63;1.30;;;5.10;99.90;;;;;;4986890;28;20841;-77
2021/10/23 01:59:46;;;;;;;6.20;1.97;;;5.10;99.90;;;;;;4986998;28;20263;-77
2021/10/23 02:02:11;;;;;;;4.27;1.30;;;5.10;99.90;;;;;;5000805;28;20184;-77
2021/10/23 02:04:37;;;;;;;10.33;1.53;;;5.10;99.90;;;;;;4986851;28;20188;-78
2021/10/23 02:07:02;;;;;;;11.03;2.03;;;5.10;99.90;;;;;;4986136;28;20336;-76
2021/10/23 02:09:28;;;;;;;5.37;1.67;;;5.10;99.90;;;;;;4986830;28;20195;-76
2021/10/23 02:11:53;;;;;;;4.07;1.33;;;5.00;99.90;;;;;;4984799;28;20717;-76
2021/10/23 02:14:19;;;;;;;3.73;1.23;;;5.00;99.90;;;;;;4986580;28;20196;-76
2021/10/23 02:16:44;;;;;;;4.27;1.30;;;5.00;99.90;;;;;;4986652;28;20283;-76
2021/10/23 02:19:10;;;;;;;3.53;1.40;;;5.10;99.90;;;;;;4986405;28;20184;-77
2021/10/23 02:21:36;;;;;;;5.13;1.63;;;5.10;99.90;;;;;;4986551;28;20264;-76
2021/10/23 02:24:01;;;;;;;5.73;1.17;;;5.10;99.90;;;;;;4986350;28;20207;-76
2021/10/23 02:26:27;;;;;;;5.63;1.50;;;5.10;99.90;;;;;;4986326;28;20579;-76
2021/10/23 02:28:52;;;;;;;4.20;1.20;;;5.10;99.90;;;;;;4986453;28;20176;-77
2021/10/23 02:31:18;;;;;;;4.70;1.27;;;5.10;99.90;;;;;;4986086;28;20180;-77
2021/10/23 02:33:43;;;;;;;2.43;1.17;;;5.20;99.90;;;;;;4986934;28;20200;-77
2021/10/23 02:36:10;;;;;;;5.87;1.47;;;5.20;99.90;;;;;;4986682;28;20616;-77
2021/10/23 02:38:35;;;;;;;3.97;1.23;;;5.20;99.90;;;;;;4986015;28;20188;-77
2021/10/23 02:41:01;;;;;;;6.43;1.77;;;5.10;99.90;;;;;;4986288;28;20199;-77
2021/10/23 02:43:27;;;;;;;3.93;1.10;;;5.10;99.90;;;;;;4986139;28;20207;-77
2021/10/23 02:45:52;;;;;;;5.00;1.10;;;5.10;99.90;;;;;;4988510;28;20210;-77
2021/10/23 02:48:19;;;;;;;5.30;1.37;;;5.10;99.90;;;;;;4989660;28;20176;-77
2021/10/23 02:50:44;;;;;;;5.63;1.10;;;5.10;99.90;;;;;;4989108;28;20180;-77
2021/10/23 02:53:10;;;;;;;4.60;1.20;;;5.20;99.90;;;;;;4988270;28;20231;-75
2021/10/23 02:55:35;;;;;;;9.87;1.40;;;5.40;99.90;;;;;;4989081;28;20227;-74
2021/10/23 02:58:01;;;;;;;7.73;1.23;;;5.50;99.90;;;;;;4989442;28;20366;-72
2021/10/23 03:00:27;;;;;;;9.47;1.57;;;5.50;99.90;;;;;;4988967;28;20192;-75
2021/10/23 03:02:53;;;;;;;2.87;1.27;;;5.50;99.90;;;;;;4988836;28;20208;-77
2021/10/23 03:05:19;;;;;;;5.97;1.10;;;5.60;99.90;;;;;;4988853;28;20244;-77
2021/10/23 03:07:45;;;;;;;9.77;1.30;;;5.70;99.90;;;;;;4989348;28;20576;-76
2021/10/23 03:10:11;;;;;;;5.40;1.00;;;5.80;99.90;;;;;;4989416;28;20180;-76
2021/10/23 03:12:36;;;;;;;5.77;1.10;;;5.90;99.90;;;;;;4989299;28;20192;-76
2021/10/23 03:15:03;;;;;;;5.57;1.10;;;5.80;99.90;;;;;;4989571;28;20192;-76
2021/10/23 03:17:28;;;;;;;4.10;1.70;;;5.80;99.90;;;;;;4989566;28;20536;-75
2021/10/23 03:19:56;;;;;;;3.90;1.10;;;5.80;99.90;;;;;;4989772;28;20239;-76
2021/10/23 03:22:22;;;;;;;5.77;1.33;;;5.80;99.90;;;;;;4989084;28;20316;-76
2021/10/23 03:24:48;;;;;;;6.80;2.13;;;5.80;99.90;;;;;;4989771;28;20259;-76
2021/10/23 03:27:14;;;;;;;5.47;1.10;;;5.80;99.90;;;;;;4989169;28;20196;-76
2021/10/23 03:29:40;;;;;;;4.50;1.10;;;5.70;99.90;;;;;;4989632;28;20226;-76
2021/10/23 03:32:06;;;;;;;5.83;1.10;;;5.80;99.90;;;;;;4989228;28;20192;-76
2021/10/23 03:34:31;;;;;;;2.80;1.20;;;5.70;99.90;;;;;;4988359;28;20251;-76
2021/10/23 03:36:57;;;;;;;4.50;1.37;;;5.80;99.90;;;;;;4989010;28;20283;-76
2021/10/23 03:39:23;;;;;;;4.37;1.43;;;5.80;99.90;;;;;;4988253;28;20180;-77
2021/10/23 03:41:48;;;;;;;7.00;1.20;;;5.80;99.90;;;;;;4988531;28;20173;-76
2021/10/23 03:44:14;;;;;;;6.47;1.43;;;5.80;99.90;;;;;;4989463;28;20208;-76
2021/10/23 03:46:39;;;;;;;4.70;1.27;;;5.80;99.90;;;;;;4989030;28;20278;-76
2021/10/23 03:49:05;;;;;;;4.97;1.30;;;5.80;99.90;;;;;;4989101;28;20192;-76
2021/10/23 03:51:31;;;;;;;6.37;1.20;;;5.70;99.90;;;;;;4989035;28;20192;-76
2021/10/23 03:53:56;;;;;;;5.60;1.20;;;5.80;99.90;;;;;;4989245;28;20599;-76
2021/10/23 03:56:22;;;;;;;5.10;1.33;;;5.80;99.90;;;;;;4987983;28;20208;-76
2021/10/23 03:58:48;;;;;;;5.27;1.30;;;5.70;99.90;;;;;;4988882;28;20183;-76
2021/10/23 04:01:15;;;;;;;5.27;1.17;;;5.70;99.90;;;;;;4988769;28;20180;-76
2021/10/23 04:03:40;;;;;;;3.63;1.23;;;5.70;99.90;;;;;;4988322;28;20208;-76
2021/10/23 04:06:06;;;;;;;4.80;1.00;;;5.70;99.90;;;;;;4988894;28;20206;-76
2021/10/23 04:08:31;;;;;;;4.73;1.33;;;5.70;99.90;;;;;;4988654;28;20279;-77
2021/10/23 04:10:57;;;;;;;4.00;0.90;;;5.70;99.90;;;;;;4988412;28;20247;-76
2021/10/23 04:13:23;;;;;;;6.43;1.27;;;5.60;99.90;;;;;;4987978;28;20180;-76
2021/10/23 04:15:49;;;;;;;3.60;0.90;;;5.50;99.90;;;;;;4988258;28;20235;-76
2021/10/23 04:18:15;;;;;;;4.63;1.10;;;5.30;99.90;;;;;;4986852;28;20727;-75
2021/10/23 04:20:40;;;;;;;4.13;1.27;;;5.30;99.90;;;;;;4988807;28;20271;-76
2021/10/23 04:23:06;;;;;;;7.07;0.90;;;5.20;99.90;;;;;;4988043;28;20565;-76
2021/10/23 04:25:32;;;;;;;4.47;1.00;;;5.20;99.90;;;;;;4987083;28;20271;-76
2021/10/23 04:27:58;;;;;;;7.50;1.30;;;5.10;99.90;;;;;;4988024;28;20210;-76
2021/10/23 04:30:24;;;;;;;3.77;1.20;;;5.10;99.90;;;;;;4988537;28;20613;-77
2021/10/23 04:32:49;;;;;;;3.80;1.30;;;5.10;99.90;;;;;;4988939;28;20246;-76
2021/10/23 04:35:15;;;;;;;7.47;2.13;;;4.90;99.90;;;;;;4988241;28;20267;-76
2021/10/23 04:37:41;;;;;;;4.77;1.60;;;5.00;99.90;;;;;;4988330;28;20670;-75
2021/10/23 04:40:07;;;;;;;4.43;1.40;;;4.90;99.90;;;;;;4988263;28;20231;-76
2021/10/23 04:42:33;;;;;;;4.73;1.53;;;5.00;99.90;;;;;;4988116;28;20574;-76
2021/10/23 04:44:59;;;;;;;5.40;1.20;;;5.10;99.90;;;;;;4988191;28;20211;-76
2021/10/23 04:47:25;;;;;;;5.03;1.30;;;5.20;99.90;;;;;;4987588;28;20204;-76
2021/10/23 04:49:50;;;;;;;5.00;1.27;;;5.30;99.90;;;;;;4987999;28;20194;-76
2021/10/23 04:52:16;;;;;;;3.53;1.00;;;5.30;99.90;;;;;;4987442;28;20259;-76
2021/10/23 04:54:42;;;;;;;4.67;1.13;;;5.40;99.90;;;;;;4988008;28;20185;-76
2021/10/23 04:57:07;;;;;;;3.03;1.00;;;5.50;99.90;;;;;;4987633;28;20199;-76
2021/10/23 04:59:33;;;;;;;4.80;1.30;;;5.50;99.90;;;;;;4988157;28;20243;-76
2021/10/23 05:01:58;;;;;;;3.30;1.07;;;5.50;99.90;;;;;;4987276;28;20220;-76
2021/10/23 05:04:24;;;;;;;5.33;1.07;;;5.50;99.90;;;;;;4988645;28;20681;-76
2021/10/23 05:06:49;;;;;;;5.47;1.20;;;5.40;99.90;;;;;;4987496;28;20262;-76
2021/10/23 05:09:15;;;;;;;4.97;0.83;;;5.40;99.90;;;;;;4987469;28;20237;-76
2021/10/23 05:11:41;;;;;;;4.07;0.90;;;5.30;99.90;;;;;;4987339;28;20208;-76
2021/10/23 05:14:06;;;;;;;1.77;0.97;;;5.30;99.90;;;;;;4988135;28;20204;-76
2021/10/23 05:16:32;;;;;;;3.70;1.23;;;5.20;99.90;;;;;;4986473;28;20204;-76
2021/10/23 05:18:57;;;;;;;2.47;1.17;;;5.30;99.90;;;;;;4987516;28;20195;-76
2021/10/23 05:21:23;;;;;;;8.30;1.00;;;5.30;99.90;;;;;;4987986;28;20191;-76
2021/10/23 05:23:51;;;;;;;5.67;1.00;;;5.30;99.90;;;;;;4986828;28;20212;-76
2021/10/23 05:26:17;;;;;;;4.73;1.17;;;5.30;99.90;;;;;;4986739;28;20721;-76
2021/10/23 05:28:42;;;;;;;2.33;1.00;;;5.40;99.90;;;;;;4987157;28;20207;-76
2021/10/23 05:31:08;;;;;;;4.90;1.63;;;5.40;99.90;;;;;;4985966;28;20246;-76
2021/10/23 05:33:34;;;;;;;3.73;0.93;;;5.50;99.90;;;;;;4987093;28;20239;-76
2021/10/23 05:35:59;;;;;;;3.77;0.80;;;5.50;99.90;;;;;;4987323;28;20610;-76
2021/10/23 05:38:25;;;;;;;3.13;1.03;;;5.50;99.90;;;;;;4986873;28;20184;-76
2021/10/23 05:40:50;;;;;;;5.27;1.00;;;5.50;99.90;;;;;;4986892;28;20180;-76
2021/10/23 05:43:16;;;;;;;3.77;1.30;;;5.50;99.90;;;;;;4986487;28;20694;-76
2021/10/23 05:45:41;;;;;;;4.37;1.07;;;5.60;99.90;;;;;;4986821;28;20242;-76
2021/10/23 05:48:07;;;;;;;2.50;1.27;;;5.60;99.90;;;;;;4986861;28;20559;-76
2021/10/23 05:50:32;;;;;;;3.47;1.00;;;5.60;99.90;;;;;;4987091;28;20219;-76
2021/10/23 05:52:58;;;;;;;4.90;1.23;;;5.50;99.90;;;;;;4986507;28;20188;-76
2021/10/23 05:55:24;;;;;;;4.43;1.30;;;5.40;99.90;;;;;;4986912;28;20215;-76
2021/10/23 05:57:49;;;;;;;2.97;1.20;;;5.30;99.90;;;;;;4986629;28;20246;-76
2021/10/23 06:00:15;;;;;;;5.43;1.27;;;5.20;99.90;;;;;;4985477;28;20612;-76
2021/10/23 06:02:42;;;;;;;4.07;1.10;;;5.00;99.90;;;;;;4986787;28;20226;-76
2021/10/23 06:05:08;;;;;;;4.73;0.90;;;5.10;99.90;;;;;;4980132;28;20185;-76
2021/10/23 06:07:38;;;;;;;3.83;1.47;;;5.20;99.90;;;;;;4983826;28;20231;-76
2021/10/23 06:10:06;;;;;;;2.27;0.97;;;5.20;99.90;;;;;;4986177;28;20647;-76
2021/10/23 06:12:32;;;;;;;3.43;1.20;;;5.30;99.90;;;;;;4984938;28;20196;-75
2021/10/23 06:14:59;;;;;;;3.73;1.20;;;5.40;99.90;;;;;;4986317;28;20287;-76
2021/10/23 06:17:24;;;;;;;7.70;1.57;;;5.40;99.90;;;;;;4986759;28;20204;-76
2021/10/23 06:19:50;;;;;;;3.03;1.00;;;5.50;99.90;;;;;;4989072;28;20263;-76
2021/10/23 06:22:16;;;;;;;1.93;0.93;;;5.40;99.90;;;;;;4992722;28;20188;-76
2021/10/23 06:24:42;;;;;;;3.50;1.20;;;5.40;99.90;;;;;;4991778;28;20191;-76
2021/10/23 06:27:07;;;;;;;3.93;1.23;;;5.40;99.90;;;;;;4991367;28;20206;-76
2021/10/23 06:29:34;;;;;;;4.63;1.30;;;5.30;99.90;;;;;;4993087;28;20180;-75
2021/10/23 06:31:59;;;;;;;3.00;1.07;;;5.30;99.90;;;;;;4991029;28;20184;-75
2021/10/23 06:34:26;;;;;;;6.10;1.90;;;5.30;99.90;;;;;;4991535;28;20182;-75
2021/10/23 06:36:51;;;;;;;5.97;1.73;;;5.30;99.90;;;;;;4990653;28;20208;-75
2021/10/23 06:39:17;;;;;;;4.67;1.20;;;5.40;99.90;;;;;;4989549;28;20195;-76
2021/10/23 06:41:43;;;;;;;5.87;1.73;;;5.40;99.90;;;;;;4989229;28;20194;-74
2021/10/23 06:44:09;;;;;;;2.87;1.20;;;5.50;99.90;;;;;;4989441;28;20638;-74
2021/10/23 06:46:39;;;;;;;3.33;1.00;;;5.70;99.90;;;;;;4988945;28;20223;-75
2021/10/23 06:49:05;;;;;;;4.73;1.30;;;5.80;99.90;;;;;;4989806;28;20732;-75
2021/10/23 06:51:31;;;;;;;4.93;1.30;;;5.80;99.90;;;;;;4989299;28;20264;-76
2021/10/23 06:53:58;;;;;;;6.23;1.90;;;5.90;99.90;;;;;;4989433;28;20765;-76
2021/10/23 06:56:24;;;;;;;6.23;1.93;;;6.00;99.90;;;;;;4988509;28;20212;-75
2021/10/23 06:58:50;;;;;;;4.93;2.23;;;6.10;99.90;;;;;;4987955;28;20226;-76
2021/10/23 07:01:16;;;;;;;3.90;1.50;;;6.10;99.90;;;;;;4989301;28;20180;-75
2021/10/23 07:03:42;;;;;;;3.63;1.50;;;6.20;99.90;;;;;;4989047;28;20212;-76
2021/10/23 07:06:08;;;;;;;5.73;2.17;;;6.20;99.90;;;;;;4988884;28;20745;-76
2021/10/23 07:08:34;;;;;;;6.10;2.83;;;6.30;99.90;;;;;;4989103;28;20191;-76
2021/10/23 07:10:59;;;;;;;8.80;2.77;;;6.40;99.90;;;;;;4985230;28;20185;-76
2021/10/23 07:13:25;;;;;;;7.30;2.97;;;6.40;99.90;;;;;;4983589;28;20191;-76
2021/10/23 07:15:51;;;;;;;5.80;2.73;;;6.50;99.90;;;;;;4987166;28;20690;-76
2021/10/23 07:18:16;;;;;;;9.03;2.60;;;6.50;99.90;;;;;;4988481;28;20180;-76
2021/10/23 07:20:42;;;;;;;5.80;2.83;;;6.50;99.90;;;;;;4988025;28;20542;-76
2021/10/23 07:23:07;;;;;;;9.47;2.90;;;6.40;99.90;;;;;;4986587;28;20287;-76
2021/10/23 07:25:33;;;;;;;7.47;3.20;;;6.40;99.90;;;;;;4990981;28;20202;-75
2021/10/23 07:27:59;;;;;;;7.33;3.13;;;6.50;99.90;;;;;;5000536;28;20215;-79
2021/10/23 07:30:24;;;;;;;5.47;3.70;;;6.60;99.90;;;;;;4992366;28;20241;-75
2021/10/23 07:32:50;;;;;;;5.67;3.20;;;6.70;99.90;;;;;;4985634;28;20190;-75
2021/10/23 07:35:16;;;;;;;4.80;2.23;;;6.90;99.90;;;;;;4991687;28;20232;-76
2021/10/23 07:37:42;;;;;;;4.50;2.20;;;7.00;99.90;;;;;;4986472;28;20208;-75
2021/10/23 07:40:09;;;;;;;7.20;1.83;;;6.90;99.90;;;;;;4983439;28;20195;-75
2021/10/23 07:42:36;;;;;;;10.93;2.87;;;7.00;99.90;;;;;;4985490;28;20690;-76
2021/10/23 07:45:03;;;;;;;8.60;2.83;;;7.10;99.90;;;;;;4985679;28;20242;-75
2021/10/23 07:47:29;;;;;;;3.20;1.70;;;7.20;99.90;;;;;;4986124;28;20204;-75
2021/10/23 07:49:55;;;;;;;9.07;1.97;;;7.40;99.90;;;;;;4985500;28;20683;-75
2021/10/23 07:52:20;;;;;;;3.27;1.47;;;7.50;99.90;;;;;;4985036;28;20632;-75
2021/10/23 07:54:47;;;;;;;13.87;2.60;;;7.50;99.90;;;;;;4985433;28;20271;-75
2021/10/23 07:57:12;;;;;;;3.90;1.87;;;7.60;99.90;;;;;;4986137;28;20204;-76
2021/10/23 07:59:38;;;;;;;4.93;1.80;;;7.60;99.90;;;;;;4983927;28;20246;-76
2021/10/23 08:02:06;;;;;;;5.03;2.03;;;7.50;99.90;;;;;;4986140;28;20219;-76
2021/10/23 08:04:32;;;;;;;4.17;1.40;;;7.40;99.90;;;;;;4985636;28;20231;-75
2021/10/23 08:07:02;;;;;;;4.73;2.00;;;7.40;99.90;;;;;;4986021;28;20650;-78
2021/10/23 08:09:29;;;;;;;4.23;1.93;;;7.40;99.90;;;;;;4986362;28;20192;-77
2021/10/23 08:11:55;;;;;;;6.60;1.83;;;7.40;99.90;;;;;;4984369;28;20705;-76
2021/10/23 08:14:20;;;;;;;5.83;2.30;;;7.60;99.90;;;;;;4984867;28;20191;-76
2021/10/23 08:16:46;;;;;;;5.70;2.10;;;7.70;99.90;;;;;;4983911;28;20208;-76
2021/10/23 08:19:12;;;;;;;5.00;2.27;;;7.70;99.90;;;;;;4985300;28;20715;-77
2021/10/23 08:21:39;;;;;;;4.07;2.00;;;7.90;99.90;;;;;;4982881;28;20693;-78
2021/10/23 08:24:05;;;;;;;4.97;2.00;;;8.10;99.90;;;;;;4983600;28;20212;-75
2021/10/23 08:26:30;;;;;;;7.90;2.20;;;8.20;99.90;;;;;;4984800;28;20493;-76
2021/10/23 08:28:56;;;;;;;4.40;1.80;;;8.30;99.90;;;;;;4984922;28;20259;-76
2021/10/23 08:31:23;;;;;;;4.23;2.20;;;8.50;99.90;;;;;;4984921;28;20191;-76
2021/10/23 08:33:49;;;;;;;5.87;2.10;;;8.50;99.90;;;;;;4983799;28;20581;-75
2021/10/23 08:36:15;;;;;;;3.83;1.57;;;8.40;99.90;;;;;;4984743;28;20266;-77
2021/10/23 08:38:41;;;;;;;5.57;1.33;;;8.40;99.90;;;;;;4985076;28;20571;-77
2021/10/23 08:41:09;;;;;;;4.13;1.50;;;8.40;99.90;;;;;;4985074;28;20602;-77
2021/10/23 08:43:36;;;;;;;5.23;1.57;;;8.40;99.90;;;;;;4985322;28;20254;-76
2021/10/23 08:46:03;;;;;;;5.23;1.60;;;8.50;99.90;;;;;;4984768;28;20657;-76
2021/10/23 08:48:30;;;;;;;5.50;2.03;;;8.50;99.90;;;;;;4984614;28;20192;-76
2021/10/23 08:51:00;;;;;;;4.60;1.87;;;8.60;99.90;;;;;;4984349;28;20187;-76
2021/10/23 08:53:27;;;;;;;6.07;1.37;;;8.70;99.90;;;;;;4984431;28;20192;-76
2021/10/23 08:55:53;;;;;;;7.27;1.60;;;8.90;99.90;;;;;;4984223;28;20506;-76
2021/10/23 08:58:19;;;;;;;3.70;1.00;;;9.20;99.90;;;;;;4984672;28;20615;-76
2021/10/23 09:00:44;;;;;;;6.20;1.20;;;9.40;99.90;;;;;;4984439;28;20414;-76
2021/10/23 09:03:10;;;;;;;4.77;1.00;;;9.60;99.90;;;;;;4984562;28;20326;-76
2021/10/23 09:05:37;;;;;;;2.80;0.70;;;9.60;99.90;;;;;;4984310;28;20259;-76
2021/10/23 09:08:14;;;;;;;5.07;1.20;;;9.70;99.90;;;;;;4982974;28;21015;-76
2021/10/23 09:10:45;;;;;;;2.37;0.80;;;9.70;99.90;;;;;;4995703;28;21237;-77
2021/10/23 09:13:11;;;;;;;6.00;1.30;;;9.70;99.90;;;;;;4981832;28;20188;-76
2021/10/23 09:15:38;;;;;;;5.80;1.20;;;9.90;99.90;;;;;;4984027;28;20688;-76
2021/10/23 09:18:05;;;;;;;2.10;0.77;;;9.90;99.90;;;;;;4984056;28;20250;-76
2021/10/23 09:20:40;;;;;;;5.63;1.20;;;9.80;99.90;;;;;;4983019;28;20644;-75
2021/10/23 09:23:18;;;;;;;4.13;1.60;;;9.70;99.90;;;;;;4983723;28;20615;-77
2021/10/23 09:25:46;;;;;;;8.63;2.43;;;9.80;99.90;;;;;;4982721;28;20219;-76
2021/10/23 09:28:14;;;;;;;3.83;1.67;;;9.90;99.90;;;;;;4982747;28;20187;-78
2021/10/23 09:30:42;;;;;;;4.93;1.43;;;10.00;99.90;;;;;;4981351;28;20416;-76
2021/10/23 09:33:11;;;;;;;5.30;1.40;;;10.00;99.90;;;;;;4983370;28;20322;-75
2021/10/23 09:35:49;;;;;;;3.67;1.00;;;10.00;99.90;;;;;;4983412;28;20720;-76
2021/10/23 09:38:18;;;;;;;2.47;1.07;;;10.10;99.90;;;;;;4983531;28;20686;-78
2021/10/23 09:40:45;;;;;;;2.60;1.20;;;10.20;99.90;;;;;;4983413;28;20223;-76
2021/10/23 09:43:12;;;;;;;4.03;1.30;;;10.20;99.90;;;;;;4983881;28;20204;-77
2021/10/23 09:46:01;;;;;;;3.37;1.20;;;10.20;99.90;;;;;;4983684;28;20689;-76
2021/10/23 09:48:53;;;;;;;5.30;1.10;;;10.20;99.90;;;;;;4983324;28;20215;-77
2021/10/23 09:51:32;;;;;;;6.53;1.10;;;10.10;99.90;;;;;;4982401;28;20188;-78
2021/10/23 09:53:59;;;;;;;6.73;1.70;;;10.20;99.90;;;;;;4982653;28;20635;-77
2021/10/23 09:56:26;;;;;;;3.23;1.30;;;10.20;99.90;;;;;;4981605;28;20255;-77
2021/10/23 09:59:01;;;;;;;3.03;1.07;;;10.30;99.90;;;;;;4977392;28;20287;-76
2021/10/23 10:01:31;;;;;;;4.77;1.33;;;10.30;99.90;;;;;;4979237;28;20206;-74
2021/10/23 10:04:02;;;;;;;4.27;1.10;;;10.40;99.90;;;;;;4987045;28;20701;-76
2021/10/23 10:06:29;;;;;;;3.13;1.10;;;10.50;99.90;;;;;;4984822;28;20212;-77
2021/10/23 10:08:55;;;;;;;9.75;5.18;;;10.50;99.90;;;;;;4982949;28;20176;-76
2021/10/23 10:11:21;;;;;;;7.13;3.65;;;10.60;99.90;;;;;;4996953;28;20219;-74
2021/10/23 10:13:48;;;;;;;4.30;1.53;;;10.80;99.90;;;;;;4982847;28;20227;-78
2021/10/23 10:16:14;;;;;;;7.45;2.83;;;11.00;99.90;;;;;;4982758;28;20732;-78
2021/10/23 10:18:45;;;;;;;5.82;1.30;;;11.00;99.90;;;;;;4983406;28;20195;-77
2021/10/23 10:21:12;;;;;;;7.78;1.33;;;11.00;99.90;;;;;;4982419;28;20195;-77
2021/10/23 10:23:40;;;;;;;3.80;1.33;;;11.00;99.90;;;;;;4982375;28;20318;-77
2021/10/23 10:26:21;;;;;;;4.38;1.27;;;11.10;99.90;;;;;;4982889;28;20678;-77
2021/10/23 10:29:05;;;;;;;7.20;1.60;;;11.10;99.90;;;;;;4982213;28;20209;-78
2021/10/23 10:34:41;;;;;;;3.85;0.90;;;10.80;99.90;;;;;;4983200;28;20287;-77
2021/10/23 10:38:08;;;;;;;4.72;1.13;;;10.70;99.90;;;;;;4983314;28;20265;-78
2021/10/23 10:42:59;;;;;;;5.87;1.10;;;10.80;99.90;;;;;;4972491;28;20666;-77
2021/10/23 10:45:41;;;;;;;4.78;1.10;;;10.80;99.90;;;;;;4983395;28;20191;-78
2021/10/23 10:48:29;;;;;;;9.80;1.43;;;10.90;99.90;;;;;;4982173;28;20187;-77
2021/10/23 10:51:11;;;;;;;3.53;1.23;;;11.00;99.90;;;;;;4981410;28;20256;-77
2021/10/23 10:53:40;;;;;;;4.05;1.13;;;11.20;99.90;;;;;;4981708;28;20184;-77
2021/10/23 10:56:10;;;;;;;4.70;0.93;;;11.30;99.90;;;;;;4979953;28;20717;-77
2021/10/23 10:58:57;;;;;;;4.10;1.52;;;11.60;99.90;;;;;;4982046;28;20284;-77
2021/10/23 11:01:30;;;;;;;3.35;1.58;;;11.90;99.90;;;;;;4981842;28;20244;-77
2021/10/23 11:03:58;;;;;;;3.63;0.93;;;12.00;99.90;;;;;;4983366;28;20211;-77
2021/10/23 11:06:41;;;;;;;5.65;1.13;;;12.00;99.90;;;;;;4984074;28;20200;-76
2021/10/23 11:09:14;;;;;;;3.28;1.52;;;11.90;99.90;;;;;;4990030;28;20242;-80
2021/10/23 11:11:42;;;;;;;8.10;1.67;;;11.60;99.90;;;;;;4987929;28;20303;-77
2021/10/23 11:14:09;;;;;;;5.25;1.30;;;11.40;99.90;;;;;;4989469;28;20188;-76
2021/10/23 11:16:37;;;;;;;3.33;1.30;;;11.50;99.90;;;;;;4988837;28;20224;-77
2021/10/23 11:19:03;;;;;;;8.48;1.95;;;11.40;99.90;;;;;;4988645;28;20184;-75
2021/10/23 11:21:31;;;;;;;2.22;0.98;;;11.60;99.90;;;;;;4988205;28;20198;-75
2021/10/23 11:23:57;;;;;;;3.78;1.02;;;11.70;99.90;;;;;;4989103;28;20208;-76
2021/10/23 11:26:23;;;;;;;3.65;1.17;;;11.80;99.90;;;;;;4989952;28;20215;-77
2021/10/23 11:28:49;;;;;;;4.35;1.05;;;11.80;99.90;;;;;;4988561;28;20176;-74
2021/10/23 11:31:22;;;;;;;4.82;1.88;;;11.60;99.90;;;;;;4988555;28;20196;-76
2021/10/23 11:33:51;;;;;;;5.35;1.42;;;11.30;99.90;;;;;;4988754;28;20291;-76
2021/10/23 11:36:18;;;;;;;3.70;1.60;;;11.20;99.90;;;;;;4987452;28;20201;-79
2021/10/23 11:38:52;;;;;;;4.88;1.50;;;11.10;99.90;;;;;;4989098;28;20188;-76
2021/10/23 11:41:24;;;;;;;2.50;1.00;;;11.10;99.90;;;;;;4988284;28;20185;-75
2021/10/23 11:43:53;;;;;;;4.95;1.10;;;11.00;99.90;;;;;;4987185;28;20204;-77
2021/10/23 11:46:19;;;;;;;5.90;1.50;;;11.00;99.90;;;;;;4988212;28;20231;-78
2021/10/23 11:48:59;;;;;;;5.32;1.52;;;11.00;99.90;;;;;;4986546;28;20218;-77
2021/10/23 11:51:25;;;;;;;5.63;1.23;;;11.10;99.90;;;;;;4988153;28;20307;-77
2021/10/23 11:54:02;;;;;;;4.47;0.90;;;11.20;99.90;;;;;;4985592;28;20659;-76
2021/10/23 11:56:28;;;;;;;3.20;1.30;;;11.20;99.90;;;;;;4985546;28;20223;-78
2021/10/23 11:58:55;;;;;;;2.70;1.40;;;11.30;99.90;;;;;;4987414;28;20188;-77
2021/10/23 12:01:28;;;;;;;4.80;1.10;;;11.40;99.90;;;;;;4983866;28;20188;-77
2021/10/23 12:04:01;;;;;;;5.47;1.05;;;11.60;99.90;;;;;;4984269;28;20218;-77
2021/10/23 12:06:38;;;;;;;5.82;1.10;;;11.80;99.90;;;;;;4984949;28;20207;-77
2021/10/23 12:09:23;;;;;;;4.00;1.55;;;12.00;99.90;;;;;;4986224;28;20184;-77
2021/10/23 12:12:08;;;;;;;5.40;1.77;;;12.00;99.90;;;;;;4988133;28;20188;-77
2021/10/23 12:14:34;;;;;;;4.00;1.05;;;12.10;99.90;;;;;;4987395;28;20208;-77
2021/10/23 12:17:00;;;;;;;6.15;2.35;;;12.20;99.90;;;;;;4985585;28;20200;-77
2021/10/23 12:19:37;;;;;;;6.05;1.30;;;12.40;99.90;;;;;;4986870;28;20677;-77
2021/10/23 12:22:05;;;;;;;3.63;1.52;;;12.50;99.90;;;;;;4987011;28;20188;-76
2021/10/23 12:24:33;;;;;;;2.53;1.13;;;12.60;99.90;;;;;;5000325;28;20323;-75
2021/10/23 12:27:02;;;;;;;4.45;0.95;;;12.60;99.90;;;;;;4985259;28;20264;-75
2021/10/23 12:29:34;;;;;;;2.17;0.80;;;12.50;99.90;;;;;;4984137;28;20188;-76
2021/10/23 12:32:06;;;;;;;1.48;0.73;;;12.40;99.90;;;;;;4984102;28;21249;-75
2021/10/23 12:34:50;;;;;;;4.65;1.00;;;12.20;99.90;;;;;;4982781;28;20227;-77
2021/10/23 12:37:28;;;;;;;1.60;0.90;;;12.10;99.90;;;;;;4985070;28;20298;-78
2021/10/23 12:40:12;;;;;;;3.30;1.23;;;12.10;99.90;;;;;;4984139;28;20713;-77
2021/10/23 12:42:44;;;;;;;2.80;1.17;;;12.10;99.90;;;;;;4984081;28;20302;-77
2021/10/23 12:45:12;;;;;;;2.63;0.90;;;12.00;99.90;;;;;;4982255;28;20196;-76
2021/10/23 12:47:38;;;;;;;4.63;1.38;;;11.90;99.90;;;;;;4984346;28;20204;-75
2021/10/23 12:50:05;;;;;;;5.18;1.52;;;11.90;99.90;;;;;;4982574;28;20658;-77
2021/10/23 12:52:33;;;;;;;3.80;1.42;;;11.90;99.90;;;;;;4984803;28;20216;-76
2021/10/23 12:54:58;;;;;;;2.65;1.15;;;11.80;99.90;;;;;;4984323;28;20188;-77
2021/10/23 12:57:25;;;;;;;3.05;1.02;;;11.70;99.90;;;;;;4985057;28;20635;-75
2021/10/23 12:59:51;;;;;;;2.30;0.93;;;11.50;99.90;;;;;;4984540;28;20663;-76
2021/10/23 13:02:17;;;;;;;3.17;1.02;;;11.50;99.90;;;;;;4984245;28;20573;-76
2021/10/23 13:04:43;;;;;;;6.80;2.25;;;11.50;99.90;;;;;;4982765;28;20208;-74